MMAS 090452Z 08004KT 10SM SKC 11/M05 A3029= 090452

MMAS 090340Z 10003KT 10SM SKC 13/M06 A3028= 090340

MMAS 090240Z 10002KT 10SM SKC 15/M07 A3027= 090241

MMAS 090141Z 28002KT 10SM SKC 16/M07 A3025= 090142

MMAS 090051Z 27006KT 10SM SKC 17/M07 A3023= 090051

MMAS 082347Z 23008KT 13SM SKC 23/M08 A3021 RMK SLP129 5//// 9// ISOL CI= 082348

MMAS 082242Z 22011KT 13SM FEW200 26/M06 A3020 RMK 8/002= 082242

MMAS 082142Z 21004KT 13SM SCT200 25/M08 A3020 RMK 8/002= 082143

MMAS 082040Z 21014KT 13SM SCT200 25/M08 A3021 RMK 8/002= 082040

MMAS 081941Z 17010KT 13SM SCT200 24/M06 A3024 RMK 8/002= 081942

MMAS 081841Z 17006KT 13SM BKN200 23/M05 A3028 RMK 8/002= 081842

MMAS 081641Z 20005KT 13SM BKN200 19/M02 A3035 RMK 8/002= 081641

MMAS 081604Z RTD 27002KT 13SM SCT200 16/M03 A3035 RMK 8/002= 081604

MMAS 081444Z 36004KT 13SM SCT200 09/M03 A3035 RMK 8/002= 081444

MMAS 081342Z 01005KT 13SM SCT200 04/M03 A3033 RMK 8/002= 081343

MMAS 081242Z 01007KT 8SM SCT200 04/M03 A3031 RMK 8/001= 081242

MMAS 081142Z 36008KT 8SM SKC 04/M03 A3029 RMK SLP158 5//// 9//= 081143

MMAS 081040Z 36005KT 8SM SKC 04/M03 A3028= 081041

MMAS 081013Z RTD 05006KT 8SM SKC 06/M03 A3028 RMK RTS= 081014

MMAS 080442Z 12006KT 10SM SKC 12/M05 A3028= 080443

MMAS 080346Z 00000KT 10SM SKC 14/M06 A3027= 080346

MMAS 080241Z 00000KT 10SM SKC 17/M07 A3026 RMK SLP/// 5//// 9// 6////= 080242

MMAS 080044Z 25007KT 10SM SKC 18/M07 A3021= 080044

MMAS 072341Z 23007KT 10SM FEW200 23/M05 A3019 RMK SLP114 5//// 9// 6//// 8/002= 072342

MMAS 072140Z 20008KT 10SM FEW200 25/M04 A3017 RMK 8/002= 072141

MMAS 071946Z 19011KT 10SM SKC 24/M02 A3021= 071947

MMAS 071843Z 00000KT 10SM SKC 23/02 A3026= 071843

MMAS 071751Z 00000KT 9SM SKC 20/04 A3029 RMK SLP138 5//// 9// 6////= 071752

MMAS 071646Z 15005KT 9SM SKC 19/04 A3032= 071646

MMAS 071616Z RTD 00000KT 9SM SKC 18/05 A3032= 071617

MMAS 071441Z 00000KT 9SM SKC 13/04 A3031 RMK SLP/// 5//// 9// 6////= 071441

MMAS 071345Z 07005KT 9SM SKC 07/03 A3029 RMK ISOL CI= 071346

MMAS 071240Z 01007KT 8SM FEW200 06/03 A3028 RMK 8/008= 071241

MMAS 071141Z 02005KT 8SM FEW200 06/02 A3027 RMK SLP146 5//// 9// 6//// 8/008= 071143

MMAS 071100Z RTD 03005KT 7SM FEW200 06/02 A3027 RMK 8/008 RTS= 071100

MMAS 070448Z 00000KT 10SM SKC 12/03 A3030= 070449

MMAS 070341Z 10004KT 10SM SKC 12/03 A3029= 070342

SPECI MMAS 070320Z 30005KT 10SM SKC 14/02 A3028 RMK ISOL CI= 070321

MMAS 070147Z 07006KT 10SM FEW270 14/02 A3027 RMK 8/005= 070148

MMAS 070049Z 08004KT 10SM FEW270 18/01 A3027 RMK 8/005= 070050

MMAS 062345Z 14004KT 10SM SKC 22/01 A3026 RMK SLP/// 5//// 9// ISOL SC CI= 062346

MMAS 062249Z 09002KT 10SM FEW250 23/01 A3024 RMK 8/005 ISOL CU= 062249

MMAS 062149Z 21006KT 10SM BKN250 23/02 A3024 RMK 8/008= 062149

MMAS 062041Z 22006KT 10SM FEW050 BKN230 24/03 A3024 RMK SLP/// 8/108 HZY= 062043

MMAS 061940Z 16006KT 10SM SCT050 BKN230 23/04 A3027 RMK 8/108 HZY= 061941

MMAS 061842Z 00000KT 10SM SCT050 BKN230 22/05 A3031 RMK 8/108 HZY= 061843

MMAS 061801Z RTD 26005KT 10SM OVC230 20/05 A3034 RMK SLP/// 5//// 9// 8/007 HZY BINOVC= 061802

MMAS 061645Z 31004KT 10SM OVC230 19/05 A3037 RMK 8/007 HZY BINOVC= 061646

MMAS 061542Z 35002KT 10SM OVC210 16/05 A3037 RMK 8/007 HZY BINOVC= 061543

MMAS 061443Z 03005KT 10SM OVC210 11/03 A3035 RMK SLP/// 8/007 HZY BINOVC= 061443